sensor_id;sensor_type;location;lat;lon;timestamp;P1;durP1;ratioP1;P2;durP2;ratioP2
40453;SDS011;26160;51.858;4.398;2023-05-10T00:01:19;71.07;;;36.90;;
40453;SDS011;26160;51.858;4.398;2023-05-10T00:03:45;73.55;;;38.88;;
40453;SDS011;26160;51.858;4.398;2023-05-10T00:06:11;59.45;;;34.67;;
40453;SDS011;26160;51.858;4.398;2023-05-10T00:08:37;66.82;;;36.33;;
40453;SDS011;26160;51.858;4.398;2023-05-10T00:11:04;60.13;;;33.92;;
40453;SDS011;26160;51.858;4.398;2023-05-10T00:13:30;64.40;;;36.88;;
40453;SDS011;26160;51.858;4.398;2023-05-10T00:15:57;69.88;;;34.25;;
40453;SDS011;26160;51.858;4.398;2023-05-10T00:18:23;68.35;;;32.75;;
40453;SDS011;26160;51.858;4.398;2023-05-10T00:20:49;75.40;;;35.10;;
40453;SDS011;26160;51.858;4.398;2023-05-10T00:23:16;78.95;;;35.08;;
40453;SDS011;26160;51.858;4.398;2023-05-10T00:25:42;74.03;;;36.97;;
40453;SDS011;26160;51.858;4.398;2023-05-10T00:28:10;90.03;;;37.80;;
40453;SDS011;26160;51.858;4.398;2023-05-10T00:30:36;77.60;;;37.42;;
40453;SDS011;26160;51.858;4.398;2023-05-10T00:33:02;73.93;;;35.95;;
40453;SDS011;26160;51.858;4.398;2023-05-10T00:35:28;94.43;;;39.88;;
40453;SDS011;26160;51.858;4.398;2023-05-10T00:37:54;104.35;;;42.05;;
40453;SDS011;26160;51.858;4.398;2023-05-10T00:40:21;64.93;;;38.17;;
40453;SDS011;26160;51.858;4.398;2023-05-10T00:42:47;78.25;;;38.40;;
40453;SDS011;26160;51.858;4.398;2023-05-10T00:45:13;70.88;;;37.22;;
40453;SDS011;26160;51.858;4.398;2023-05-10T00:47:39;85.20;;;38.40;;
40453;SDS011;26160;51.858;4.398;2023-05-10T00:50:11;83.18;;;38.95;;
40453;SDS011;26160;51.858;4.398;2023-05-10T00:55:04;86.85;;;38.72;;
40453;SDS011;26160;51.858;4.398;2023-05-10T00:57:31;70.30;;;35.55;;
40453;SDS011;26160;51.858;4.398;2023-05-10T00:59:58;94.53;;;40.47;;
40453;SDS011;26160;51.858;4.398;2023-05-10T01:07:36;87.75;;;40.25;;
40453;SDS011;26160;51.858;4.398;2023-05-10T01:10:46;85.50;;;39.05;;
40453;SDS011;26160;51.858;4.398;2023-05-10T01:16:51;61.00;;;32.95;;
40453;SDS011;26160;51.858;4.398;2023-05-10T01:47:11;113.70;;;39.40;;
40453;SDS011;26160;51.858;4.398;2023-05-10T01:53:28;86.00;;;36.45;;
40453;SDS011;26160;51.858;4.398;2023-05-10T01:56:42;71.45;;;33.42;;
40453;SDS011;26160;51.858;4.398;2023-05-10T02:18:14;74.35;;;34.25;;
40453;SDS011;26160;51.858;4.398;2023-05-10T02:24:02;74.80;;;34.75;;
40453;SDS011;26160;51.858;4.398;2023-05-10T02:29:36;81.82;;;36.00;;
40453;SDS011;26160;51.858;4.398;2023-05-10T02:39:05;84.03;;;40.93;;
40453;SDS011;26160;51.858;4.398;2023-05-10T02:53:54;73.00;;;39.80;;
40453;SDS011;26160;51.858;4.398;2023-05-10T03:00:14;93.05;;;43.08;;
40453;SDS011;26160;51.858;4.398;2023-05-10T03:16:52;75.30;;;41.13;;
40453;SDS011;26160;51.858;4.398;2023-05-10T03:50:08;83.93;;;46.88;;
40453;SDS011;26160;51.858;4.398;2023-05-10T04:07:11;80.75;;;46.65;;
40453;SDS011;26160;51.858;4.398;2023-05-10T04:10:00;85.75;;;48.08;;
40453;SDS011;26160;51.858;4.398;2023-05-10T04:19:23;79.15;;;43.50;;
40453;SDS011;26160;51.858;4.398;2023-05-10T04:28:15;85.32;;;43.75;;
40453;SDS011;26160;51.858;4.398;2023-05-10T04:34:43;72.47;;;39.33;;
40453;SDS011;26160;51.858;4.398;2023-05-10T04:37:50;68.78;;;38.63;;
40453;SDS011;26160;51.858;4.398;2023-05-10T05:11:53;55.13;;;29.90;;
40453;SDS011;26160;51.858;4.398;2023-05-10T05:24:22;56.25;;;31.55;;
40453;SDS011;26160;51.858;4.398;2023-05-10T05:33:02;39.58;;;26.25;;
40453;SDS011;26160;51.858;4.398;2023-05-10T05:35:35;41.15;;;27.75;;
40453;SDS011;26160;51.858;4.398;2023-05-10T05:41:03;41.53;;;25.80;;
40453;SDS011;26160;51.858;4.398;2023-05-10T05:43:29;51.00;;;27.05;;
40453;SDS011;26160;51.858;4.398;2023-05-10T05:45:55;49.35;;;25.88;;
40453;SDS011;26160;51.858;4.398;2023-05-10T05:48:23;46.35;;;24.52;;
40453;SDS011;26160;51.858;4.398;2023-05-10T05:50:50;43.28;;;25.30;;
40453;SDS011;26160;51.858;4.398;2023-05-10T05:53:19;40.53;;;23.40;;
40453;SDS011;26160;51.858;4.398;2023-05-10T05:55:55;36.28;;;23.98;;
40453;SDS011;26160;51.858;4.398;2023-05-10T05:58:23;37.10;;;24.20;;
40453;SDS011;26160;51.858;4.398;2023-05-10T06:00:50;44.30;;;24.95;;
40453;SDS011;26160;51.858;4.398;2023-05-10T06:03:17;34.97;;;23.08;;
40453;SDS011;26160;51.858;4.398;2023-05-10T06:05:44;37.85;;;22.00;;
40453;SDS011;26160;51.858;4.398;2023-05-10T06:08:10;35.50;;;21.23;;
40453;SDS011;26160;51.858;4.398;2023-05-10T06:10:36;33.45;;;20.38;;
40453;SDS011;26160;51.858;4.398;2023-05-10T06:13:02;32.67;;;19.77;;
40453;SDS011;26160;51.858;4.398;2023-05-10T06:15:28;33.42;;;19.85;;
40453;SDS011;26160;51.858;4.398;2023-05-10T06:17:55;35.75;;;21.98;;
40453;SDS011;26160;51.858;4.398;2023-05-10T06:20:21;28.15;;;18.65;;
40453;SDS011;26160;51.858;4.398;2023-05-10T06:22:47;26.00;;;17.27;;
40453;SDS011;26160;51.858;4.398;2023-05-10T06:25:16;24.20;;;16.38;;
40453;SDS011;26160;51.858;4.398;2023-05-10T06:27:43;22.20;;;15.73;;
40453;SDS011;26160;51.858;4.398;2023-05-10T06:30:10;22.90;;;16.13;;
40453;SDS011;26160;51.858;4.398;2023-05-10T06:32:38;24.00;;;15.98;;
40453;SDS011;26160;51.858;4.398;2023-05-10T06:35:04;27.77;;;17.50;;
40453;SDS011;26160;51.858;4.398;2023-05-10T06:37:31;30.90;;;17.00;;
40453;SDS011;26160;51.858;4.398;2023-05-10T06:39:57;28.35;;;17.67;;
40453;SDS011;26160;51.858;4.398;2023-05-10T06:42:23;22.27;;;15.93;;
40453;SDS011;26160;51.858;4.398;2023-05-10T06:44:51;26.38;;;18.15;;
40453;SDS011;26160;51.858;4.398;2023-05-10T06:47:17;21.17;;;15.40;;
40453;SDS011;26160;51.858;4.398;2023-05-10T06:49:43;26.17;;;16.23;;
40453;SDS011;26160;51.858;4.398;2023-05-10T06:52:09;22.65;;;15.85;;
40453;SDS011;26160;51.858;4.398;2023-05-10T06:54:35;19.63;;;14.73;;
40453;SDS011;26160;51.858;4.398;2023-05-10T06:57:01;15.30;;;13.63;;
40453;SDS011;26160;51.858;4.398;2023-05-10T06:59:28;19.92;;;13.80;;
40453;SDS011;26160;51.858;4.398;2023-05-10T07:04:23;17.00;;;12.60;;
40453;SDS011;26160;51.858;4.398;2023-05-10T07:06:53;13.85;;;11.48;;
40453;SDS011;26160;51.858;4.398;2023-05-10T07:09:19;12.75;;;11.23;;
40453;SDS011;26160;51.858;4.398;2023-05-10T07:11:45;12.32;;;10.75;;
40453;SDS011;26160;51.858;4.398;2023-05-10T07:14:11;14.90;;;10.57;;
40453;SDS011;26160;51.858;4.398;2023-05-10T07:16:37;10.68;;;9.48;;
40453;SDS011;26160;51.858;4.398;2023-05-10T07:19:06;12.23;;;10.25;;
40453;SDS011;26160;51.858;4.398;2023-05-10T07:21:33;11.68;;;10.48;;
40453;SDS011;26160;51.858;4.398;2023-05-10T07:24:00;11.45;;;10.30;;
40453;SDS011;26160;51.858;4.398;2023-05-10T07:26:26;11.45;;;9.82;;
40453;SDS011;26160;51.858;4.398;2023-05-10T07:28:52;11.88;;;9.57;;
40453;SDS011;26160;51.858;4.398;2023-05-10T07:31:19;12.30;;;9.57;;
40453;SDS011;26160;51.858;4.398;2023-05-10T07:33:47;9.32;;;7.88;;
40453;SDS011;26160;51.858;4.398;2023-05-10T07:36:14;8.57;;;7.78;;
40453;SDS011;26160;51.858;4.398;2023-05-10T07:38:40;9.32;;;7.53;;
40453;SDS011;26160;51.858;4.398;2023-05-10T07:41:10;7.80;;;7.00;;
40453;SDS011;26160;51.858;4.398;2023-05-10T07:43:37;9.48;;;6.78;;
40453;SDS011;26160;51.858;4.398;2023-05-10T07:46:04;9.02;;;7.07;;
40453;SDS011;26160;51.858;4.398;2023-05-10T07:48:30;8.57;;;6.78;;
40453;SDS011;26160;51.858;4.398;2023-05-10T07:50:57;7.97;;;6.25;;
40453;SDS011;26160;51.858;4.398;2023-05-10T07:53:26;7.80;;;6.32;;
40453;SDS011;26160;51.858;4.398;2023-05-10T07:56:19;6.95;;;6.20;;
40453;SDS011;26160;51.858;4.398;2023-05-10T07:58:55;9.35;;;6.70;;
40453;SDS011;26160;51.858;4.398;2023-05-10T08:01:22;7.72;;;6.47;;
40453;SDS011;26160;51.858;4.398;2023-05-10T08:03:48;8.20;;;6.80;;
40453;SDS011;26160;51.858;4.398;2023-05-10T08:06:19;5.63;;;5.15;;
40453;SDS011;26160;51.858;4.398;2023-05-10T08:08:47;8.00;;;6.70;;
40453;SDS011;26160;51.858;4.398;2023-05-10T08:11:16;7.68;;;5.75;;
40453;SDS011;26160;51.858;4.398;2023-05-10T08:13:43;6.20;;;5.65;;
40453;SDS011;26160;51.858;4.398;2023-05-10T08:16:10;7.25;;;5.72;;
40453;SDS011;26160;51.858;4.398;2023-05-10T08:18:37;9.15;;;6.85;;
40453;SDS011;26160;51.858;4.398;2023-05-10T08:21:03;10.20;;;7.80;;
40453;SDS011;26160;51.858;4.398;2023-05-10T08:23:31;8.95;;;6.90;;
40453;SDS011;26160;51.858;4.398;2023-05-10T08:25:57;7.88;;;6.07;;
40453;SDS011;26160;51.858;4.398;2023-05-10T08:28:24;7.80;;;6.10;;
40453;SDS011;26160;51.858;4.398;2023-05-10T08:30:51;6.90;;;5.30;;
40453;SDS011;26160;51.858;4.398;2023-05-10T08:33:18;6.10;;;5.50;;
40453;SDS011;26160;51.858;4.398;2023-05-10T08:35:44;6.25;;;5.65;;
40453;SDS011;26160;51.858;4.398;2023-05-10T08:38:10;8.02;;;5.63;;
40453;SDS011;26160;51.858;4.398;2023-05-10T08:40:38;6.78;;;6.18;;
40453;SDS011;26160;51.858;4.398;2023-05-10T08:43:11;6.45;;;5.75;;
40453;SDS011;26160;51.858;4.398;2023-05-10T08:45:39;7.60;;;5.43;;
40453;SDS011;26160;51.858;4.398;2023-05-10T08:48:06;6.90;;;5.95;;
40453;SDS011;26160;51.858;4.398;2023-05-10T08:50:37;7.32;;;6.03;;
40453;SDS011;26160;51.858;4.398;2023-05-10T08:53:11;10.20;;;5.68;;
40453;SDS011;26160;51.858;4.398;2023-05-10T08:55:39;5.78;;;4.68;;
40453;SDS011;26160;51.858;4.398;2023-05-10T08:58:07;5.93;;;4.40;;
40453;SDS011;26160;51.858;4.398;2023-05-10T09:00:35;6.63;;;4.55;;
40453;SDS011;26160;51.858;4.398;2023-05-10T09:03:02;6.60;;;4.90;;
40453;SDS011;26160;51.858;4.398;2023-05-10T09:05:30;4.88;;;4.28;;
40453;SDS011;26160;51.858;4.398;2023-05-10T09:07:57;4.82;;;4.32;;
40453;SDS011;26160;51.858;4.398;2023-05-10T09:10:26;5.30;;;4.30;;
40453;SDS011;26160;51.858;4.398;2023-05-10T09:12:53;5.97;;;4.80;;
40453;SDS011;26160;51.858;4.398;2023-05-10T09:15:22;5.43;;;4.53;;
40453;SDS011;26160;51.858;4.398;2023-05-10T09:17:51;5.50;;;4.82;;
40453;SDS011;26160;51.858;4.398;2023-05-10T09:20:17;5.93;;;4.20;;
40453;SDS011;26160;51.858;4.398;2023-05-10T09:22:44;6.88;;;4.72;;
40453;SDS011;26160;51.858;4.398;2023-05-10T09:25:14;5.72;;;4.13;;
40453;SDS011;26160;51.858;4.398;2023-05-10T09:27:45;5.80;;;5.20;;
40453;SDS011;26160;51.858;4.398;2023-05-10T09:30:34;8.93;;;6.35;;
40453;SDS011;26160;51.858;4.398;2023-05-10T09:32:59;6.78;;;5.75;;
40453;SDS011;26160;51.858;4.398;2023-05-10T09:35:26;7.97;;;6.10;;
40453;SDS011;26160;51.858;4.398;2023-05-10T09:37:55;9.30;;;5.88;;
40453;SDS011;26160;51.858;4.398;2023-05-10T09:40:24;6.80;;;5.90;;
40453;SDS011;26160;51.858;4.398;2023-05-10T09:42:52;10.57;;;6.85;;
40453;SDS011;26160;51.858;4.398;2023-05-10T09:45:22;7.15;;;6.07;;
40453;SDS011;26160;51.858;4.398;2023-05-10T09:47:49;9.52;;;6.07;;
40453;SDS011;26160;51.858;4.398;2023-05-10T09:50:16;8.52;;;5.60;;
40453;SDS011;26160;51.858;4.398;2023-05-10T09:52:46;8.02;;;5.95;;
40453;SDS011;26160;51.858;4.398;2023-05-10T09:55:21;8.27;;;5.43;;
40453;SDS011;26160;51.858;4.398;2023-05-10T09:57:48;5.97;;;5.38;;
40453;SDS011;26160;51.858;4.398;2023-05-10T10:00:23;9.73;;;5.60;;
40453;SDS011;26160;51.858;4.398;2023-05-10T10:02:56;6.40;;;5.15;;
40453;SDS011;26160;51.858;4.398;2023-05-10T10:05:33;10.30;;;6.78;;
40453;SDS011;26160;51.858;4.398;2023-05-10T10:08:05;11.02;;;7.60;;
40453;SDS011;26160;51.858;4.398;2023-05-10T10:10:32;13.52;;;8.82;;
40453;SDS011;26160;51.858;4.398;2023-05-10T10:12:59;10.65;;;9.05;;
40453;SDS011;26160;51.858;4.398;2023-05-10T10:15:25;10.82;;;8.63;;
40453;SDS011;26160;51.858;4.398;2023-05-10T10:17:52;13.13;;;8.95;;
40453;SDS011;26160;51.858;4.398;2023-05-10T10:20:20;12.80;;;8.23;;
40453;SDS011;26160;51.858;4.398;2023-05-10T10:22:47;8.57;;;7.30;;
40453;SDS011;26160;51.858;4.398;2023-05-10T10:25:15;7.82;;;6.68;;
40453;SDS011;26160;51.858;4.398;2023-05-10T10:30:42;7.55;;;6.00;;
40453;SDS011;26160;51.858;4.398;2023-05-10T10:35:49;8.38;;;5.28;;
40453;SDS011;26160;51.858;4.398;2023-05-10T10:38:16;6.63;;;5.07;;
40453;SDS011;26160;51.858;4.398;2023-05-10T10:40:42;9.02;;;5.63;;
40453;SDS011;26160;51.858;4.398;2023-05-10T10:43:25;8.15;;;5.03;;
40453;SDS011;26160;51.858;4.398;2023-05-10T10:48:38;5.35;;;4.32;;
40453;SDS011;26160;51.858;4.398;2023-05-10T10:51:05;6.30;;;4.50;;
40453;SDS011;26160;51.858;4.398;2023-05-10T10:53:36;7.20;;;4.70;;
40453;SDS011;26160;51.858;4.398;2023-05-10T10:56:10;6.85;;;4.88;;
40453;SDS011;26160;51.858;4.398;2023-05-10T10:58:39;6.18;;;4.45;;
40453;SDS011;26160;51.858;4.398;2023-05-10T11:01:09;6.75;;;3.78;;
40453;SDS011;26160;51.858;4.398;2023-05-10T11:03:37;6.50;;;4.10;;
40453;SDS011;26160;51.858;4.398;2023-05-10T11:06:03;4.93;;;4.28;;
40453;SDS011;26160;51.858;4.398;2023-05-10T11:08:33;7.43;;;4.30;;
40453;SDS011;26160;51.858;4.398;2023-05-10T11:11:10;5.70;;;3.85;;
40453;SDS011;26160;51.858;4.398;2023-05-10T11:19:03;10.23;;;4.72;;
40453;SDS011;26160;51.858;4.398;2023-05-10T11:21:33;8.05;;;4.00;;
40453;SDS011;26160;51.858;4.398;2023-05-10T11:24:13;10.38;;;5.20;;
40453;SDS011;26160;51.858;4.398;2023-05-10T11:26:41;6.35;;;4.13;;
40453;SDS011;26160;51.858;4.398;2023-05-10T11:29:07;7.90;;;4.25;;
40453;SDS011;26160;51.858;4.398;2023-05-10T11:31:33;7.40;;;4.30;;
40453;SDS011;26160;51.858;4.398;2023-05-10T11:34:00;6.07;;;4.05;;
40453;SDS011;26160;51.858;4.398;2023-05-10T11:36:34;7.55;;;4.20;;
40453;SDS011;26160;51.858;4.398;2023-05-10T11:39:01;5.43;;;3.60;;
40453;SDS011;26160;51.858;4.398;2023-05-10T11:41:28;6.10;;;3.65;;
40453;SDS011;26160;51.858;4.398;2023-05-10T11:43:56;3.95;;;2.78;;
40453;SDS011;26160;51.858;4.398;2023-05-10T11:46:24;3.60;;;3.05;;
40453;SDS011;26160;51.858;4.398;2023-05-10T11:49:00;5.25;;;3.08;;
40453;SDS011;26160;51.858;4.398;2023-05-10T11:51:27;5.90;;;3.75;;
40453;SDS011;26160;51.858;4.398;2023-05-10T11:53:54;9.27;;;3.25;;
40453;SDS011;26160;51.858;4.398;2023-05-10T11:56:21;6.05;;;3.78;;
40453;SDS011;26160;51.858;4.398;2023-05-10T11:58:56;4.38;;;3.22;;
40453;SDS011;26160;51.858;4.398;2023-05-10T12:01:23;4.80;;;3.33;;
40453;SDS011;26160;51.858;4.398;2023-05-10T12:03:52;6.40;;;3.63;;
40453;SDS011;26160;51.858;4.398;2023-05-10T12:06:20;5.75;;;3.97;;
40453;SDS011;26160;51.858;4.398;2023-05-10T12:08:47;7.97;;;3.75;;
40453;SDS011;26160;51.858;4.398;2023-05-10T12:11:17;7.97;;;3.72;;
40453;SDS011;26160;51.858;4.398;2023-05-10T12:13:44;10.70;;;4.03;;
40453;SDS011;26160;51.858;4.398;2023-05-10T12:16:19;7.80;;;4.20;;
40453;SDS011;26160;51.858;4.398;2023-05-10T12:18:50;6.05;;;3.58;;
40453;SDS011;26160;51.858;4.398;2023-05-10T12:21:17;4.65;;;3.70;;
40453;SDS011;26160;51.858;4.398;2023-05-10T12:23:45;7.03;;;3.70;;
40453;SDS011;26160;51.858;4.398;2023-05-10T12:26:13;7.40;;;3.42;;
40453;SDS011;26160;51.858;4.398;2023-05-10T12:28:40;6.82;;;3.70;;
40453;SDS011;26160;51.858;4.398;2023-05-10T12:31:07;8.32;;;3.72;;
40453;SDS011;26160;51.858;4.398;2023-05-10T12:36:10;5.15;;;3.50;;
40453;SDS011;26160;51.858;4.398;2023-05-10T12:38:38;6.05;;;2.95;;
40453;SDS011;26160;51.858;4.398;2023-05-10T12:41:09;6.13;;;3.00;;
40453;SDS011;26160;51.858;4.398;2023-05-10T12:43:37;4.40;;;2.75;;
40453;SDS011;26160;51.858;4.398;2023-05-10T12:46:05;4.95;;;2.55;;
40453;SDS011;26160;51.858;4.398;2023-05-10T12:48:39;7.43;;;3.53;;
40453;SDS011;26160;51.858;4.398;2023-05-10T12:51:07;5.90;;;3.45;;
40453;SDS011;26160;51.858;4.398;2023-05-10T12:53:35;7.07;;;3.72;;
40453;SDS011;26160;51.858;4.398;2023-05-10T12:56:05;9.80;;;3.40;;
40453;SDS011;26160;51.858;4.398;2023-05-10T12:58:35;6.57;;;3.05;;
40453;SDS011;26160;51.858;4.398;2023-05-10T13:01:01;8.23;;;3.20;;
40453;SDS011;26160;51.858;4.398;2023-05-10T13:03:27;6.18;;;3.40;;
40453;SDS011;26160;51.858;4.398;2023-05-10T13:05:54;6.13;;;3.22;;
40453;SDS011;26160;51.858;4.398;2023-05-10T13:08:20;5.10;;;2.53;;
40453;SDS011;26160;51.858;4.398;2023-05-10T13:10:46;5.40;;;2.60;;
40453;SDS011;26160;51.858;4.398;2023-05-10T13:13:12;6.68;;;2.60;;
40453;SDS011;26160;51.858;4.398;2023-05-10T13:15:38;6.28;;;2.97;;
40453;SDS011;26160;51.858;4.398;2023-05-10T13:18:05;7.85;;;3.28;;
40453;SDS011;26160;51.858;4.398;2023-05-10T13:20:31;6.95;;;3.10;;
40453;SDS011;26160;51.858;4.398;2023-05-10T13:22:57;5.53;;;2.50;;
40453;SDS011;26160;51.858;4.398;2023-05-10T13:25:23;11.18;;;3.97;;
40453;SDS011;26160;51.858;4.398;2023-05-10T13:27:49;7.18;;;3.45;;
40453;SDS011;26160;51.858;4.398;2023-05-10T13:30:15;9.25;;;3.05;;
40453;SDS011;26160;51.858;4.398;2023-05-10T13:32:41;8.85;;;2.90;;
40453;SDS011;26160;51.858;4.398;2023-05-10T13:35:08;5.32;;;2.78;;
40453;SDS011;26160;51.858;4.398;2023-05-10T13:37:34;5.65;;;2.50;;
40453;SDS011;26160;51.858;4.398;2023-05-10T13:40:03;7.32;;;2.25;;
40453;SDS011;26160;51.858;4.398;2023-05-10T13:42:30;5.43;;;3.03;;
40453;SDS011;26160;51.858;4.398;2023-05-10T13:44:59;7.53;;;3.00;;
40453;SDS011;26160;51.858;4.398;2023-05-10T13:47:27;4.28;;;2.35;;
40453;SDS011;26160;51.858;4.398;2023-05-10T13:49:53;4.82;;;2.75;;
40453;SDS011;26160;51.858;4.398;2023-05-10T13:52:23;4.10;;;2.30;;
40453;SDS011;26160;51.858;4.398;2023-05-10T13:54:49;4.55;;;2.80;;
40453;SDS011;26160;51.858;4.398;2023-05-10T13:57:17;4.15;;;2.55;;
40453;SDS011;26160;51.858;4.398;2023-05-10T13:59:44;4.60;;;2.30;;
40453;SDS011;26160;51.858;4.398;2023-05-10T14:02:10;3.40;;;2.08;;
40453;SDS011;26160;51.858;4.398;2023-05-10T14:04:38;4.47;;;2.63;;
40453;SDS011;26160;51.858;4.398;2023-05-10T14:07:04;6.65;;;2.53;;
40453;SDS011;26160;51.858;4.398;2023-05-10T14:09:30;3.83;;;2.42;;
40453;SDS011;26160;51.858;4.398;2023-05-10T14:11:57;6.22;;;2.97;;
40453;SDS011;26160;51.858;4.398;2023-05-10T14:14:23;4.45;;;2.70;;
40453;SDS011;26160;51.858;4.398;2023-05-10T14:16:49;5.30;;;2.80;;
40453;SDS011;26160;51.858;4.398;2023-05-10T14:19:15;6.97;;;3.25;;
40453;SDS011;26160;51.858;4.398;2023-05-10T14:21:41;8.95;;;4.20;;
40453;SDS011;26160;51.858;4.398;2023-05-10T14:24:08;6.55;;;3.92;;
40453;SDS011;26160;51.858;4.398;2023-05-10T14:26:34;8.10;;;3.70;;
40453;SDS011;26160;51.858;4.398;2023-05-10T14:29:01;7.32;;;4.20;;
40453;SDS011;26160;51.858;4.398;2023-05-10T14:31:27;7.75;;;4.10;;
40453;SDS011;26160;51.858;4.398;2023-05-10T14:33:55;7.25;;;4.95;;
40453;SDS011;26160;51.858;4.398;2023-05-10T14:36:22;8.70;;;5.50;;
40453;SDS011;26160;51.858;4.398;2023-05-10T14:38:49;9.52;;;5.43;;
40453;SDS011;26160;51.858;4.398;2023-05-10T14:41:15;7.82;;;6.07;;
40453;SDS011;26160;51.858;4.398;2023-05-10T14:43:43;12.15;;;6.00;;
40453;SDS011;26160;51.858;4.398;2023-05-10T14:46:09;12.18;;;6.25;;
40453;SDS011;26160;51.858;4.398;2023-05-10T14:48:35;10.38;;;5.88;;
40453;SDS011;26160;51.858;4.398;2023-05-10T14:51:01;11.05;;;6.57;;
40453;SDS011;26160;51.858;4.398;2023-05-10T14:53:29;8.30;;;4.93;;
40453;SDS011;26160;51.858;4.398;2023-05-10T14:55:55;15.05;;;5.68;;
40453;SDS011;26160;51.858;4.398;2023-05-10T14:58:21;8.55;;;5.90;;
40453;SDS011;26160;51.858;4.398;2023-05-10T15:00:47;5.53;;;4.90;;
40453;SDS011;26160;51.858;4.398;2023-05-10T15:03:14;7.00;;;5.15;;
40453;SDS011;26160;51.858;4.398;2023-05-10T15:05:40;6.93;;;5.60;;
40453;SDS011;26160;51.858;4.398;2023-05-10T15:08:06;8.35;;;5.53;;
40453;SDS011;26160;51.858;4.398;2023-05-10T15:10:33;8.90;;;6.07;;
40453;SDS011;26160;51.858;4.398;2023-05-10T15:12:59;6.40;;;5.43;;
40453;SDS011;26160;51.858;4.398;2023-05-10T15:15:25;8.77;;;6.20;;
40453;SDS011;26160;51.858;4.398;2023-05-10T15:17:51;8.73;;;5.65;;
40453;SDS011;26160;51.858;4.398;2023-05-10T15:20:17;8.63;;;6.13;;
40453;SDS011;26160;51.858;4.398;2023-05-10T15:22:47;11.95;;;7.03;;
40453;SDS011;26160;51.858;4.398;2023-05-10T15:25:13;8.52;;;6.55;;
40453;SDS011;26160;51.858;4.398;2023-05-10T15:27:41;11.40;;;6.65;;
40453;SDS011;26160;51.858;4.398;2023-05-10T15:30:09;8.75;;;5.70;;
40453;SDS011;26160;51.858;4.398;2023-05-10T15:32:36;11.32;;;5.75;;
40453;SDS011;26160;51.858;4.398;2023-05-10T15:35:02;10.57;;;6.45;;
40453;SDS011;26160;51.858;4.398;2023-05-10T15:37:29;9.85;;;6.18;;
40453;SDS011;26160;51.858;4.398;2023-05-10T15:39:55;10.50;;;5.63;;
40453;SDS011;26160;51.858;4.398;2023-05-10T15:42:29;10.23;;;6.63;;
40453;SDS011;26160;51.858;4.398;2023-05-10T15:44:56;9.88;;;6.80;;
40453;SDS011;26160;51.858;4.398;2023-05-10T15:47:22;9.80;;;6.82;;
40453;SDS011;26160;51.858;4.398;2023-05-10T15:49:48;9.15;;;6.43;;
40453;SDS011;26160;51.858;4.398;2023-05-10T15:52:14;7.18;;;5.97;;
40453;SDS011;26160;51.858;4.398;2023-05-10T15:54:41;11.20;;;6.82;;
40453;SDS011;26160;51.858;4.398;2023-05-10T15:57:07;10.77;;;7.28;;
40453;SDS011;26160;51.858;4.398;2023-05-10T15:59:33;10.80;;;6.40;;
40453;SDS011;26160;51.858;4.398;2023-05-10T16:02:00;8.07;;;6.07;;
40453;SDS011;26160;51.858;4.398;2023-05-10T16:04:28;7.20;;;5.88;;
40453;SDS011;26160;51.858;4.398;2023-05-10T16:06:54;8.18;;;6.25;;
40453;SDS011;26160;51.858;4.398;2023-05-10T16:09:21;6.93;;;6.18;;
40453;SDS011;26160;51.858;4.398;2023-05-10T16:11:47;7.85;;;6.22;;
40453;SDS011;26160;51.858;4.398;2023-05-10T16:14:13;7.90;;;6.13;;
40453;SDS011;26160;51.858;4.398;2023-05-10T16:16:40;9.65;;;5.88;;
40453;SDS011;26160;51.858;4.398;2023-05-10T16:19:07;6.80;;;4.72;;
40453;SDS011;26160;51.858;4.398;2023-05-10T16:21:33;6.70;;;5.00;;
40453;SDS011;26160;51.858;4.398;2023-05-10T16:24:00;6.82;;;5.43;;
40453;SDS011;26160;51.858;4.398;2023-05-10T16:26:27;5.85;;;5.00;;
40453;SDS011;26160;51.858;4.398;2023-05-10T16:28:53;8.25;;;4.35;;
40453;SDS011;26160;51.858;4.398;2023-05-10T16:31:19;5.97;;;4.93;;
40453;SDS011;26160;51.858;4.398;2023-05-10T16:33:45;5.32;;;4.82;;
40453;SDS011;26160;51.858;4.398;2023-05-10T16:36:13;6.57;;;5.10;;
40453;SDS011;26160;51.858;4.398;2023-05-10T16:38:39;6.28;;;5.50;;
40453;SDS011;26160;51.858;4.398;2023-05-10T16:41:06;5.15;;;4.65;;
40453;SDS011;26160;51.858;4.398;2023-05-10T16:43:32;6.78;;;4.82;;
40453;SDS011;26160;51.858;4.398;2023-05-10T16:45:58;7.07;;;4.82;;
40453;SDS011;26160;51.858;4.398;2023-05-10T16:48:24;5.32;;;4.82;;
40453;SDS011;26160;51.858;4.398;2023-05-10T16:50:51;5.00;;;4.50;;
40453;SDS011;26160;51.858;4.398;2023-05-10T16:53:17;4.65;;;4.22;;
40453;SDS011;26160;51.858;4.398;2023-05-10T16:55:44;6.43;;;4.95;;
40453;SDS011;26160;51.858;4.398;2023-05-10T16:58:11;5.10;;;4.70;;
40453;SDS011;26160;51.858;4.398;2023-05-10T17:00:37;5.47;;;4.85;;
40453;SDS011;26160;51.858;4.398;2023-05-10T17:03:03;7.20;;;4.88;;
40453;SDS011;26160;51.858;4.398;2023-05-10T17:05:30;6.30;;;4.00;;
40453;SDS011;26160;51.858;4.398;2023-05-10T17:07:56;6.20;;;5.32;;
40453;SDS011;26160;51.858;4.398;2023-05-10T17:10:22;6.85;;;5.43;;
40453;SDS011;26160;51.858;4.398;2023-05-10T17:12:49;6.82;;;5.60;;
40453;SDS011;26160;51.858;4.398;2023-05-10T17:15:15;9.10;;;5.75;;
40453;SDS011;26160;51.858;4.398;2023-05-10T17:17:43;7.88;;;6.88;;
40453;SDS011;26160;51.858;4.398;2023-05-10T17:20:09;7.47;;;6.47;;
40453;SDS011;26160;51.858;4.398;2023-05-10T17:22:35;7.40;;;6.57;;
40453;SDS011;26160;51.858;4.398;2023-05-10T17:25:02;7.35;;;5.80;;
40453;SDS011;26160;51.858;4.398;2023-05-10T17:27:28;7.63;;;5.70;;
40453;SDS011;26160;51.858;4.398;2023-05-10T17:29:55;5.63;;;5.10;;
40453;SDS011;26160;51.858;4.398;2023-05-10T17:32:22;6.93;;;6.22;;
40453;SDS011;26160;51.858;4.398;2023-05-10T17:34:48;7.22;;;6.40;;
40453;SDS011;26160;51.858;4.398;2023-05-10T17:37:14;8.13;;;6.22;;
40453;SDS011;26160;51.858;4.398;2023-05-10T17:39:40;7.88;;;6.45;;
40453;SDS011;26160;51.858;4.398;2023-05-10T17:42:06;6.55;;;5.90;;
40453;SDS011;26160;51.858;4.398;2023-05-10T17:44:33;6.78;;;6.07;;
40453;SDS011;26160;51.858;4.398;2023-05-10T17:46:59;8.60;;;6.55;;
40453;SDS011;26160;51.858;4.398;2023-05-10T17:49:25;10.00;;;9.02;;
40453;SDS011;26160;51.858;4.398;2023-05-10T17:51:53;8.65;;;7.22;;
40453;SDS011;26160;51.858;4.398;2023-05-10T17:54:19;6.55;;;5.90;;
40453;SDS011;26160;51.858;4.398;2023-05-10T17:56:45;7.65;;;6.63;;
40453;SDS011;26160;51.858;4.398;2023-05-10T17:59:11;9.60;;;8.38;;
40453;SDS011;26160;51.858;4.398;2023-05-10T18:01:37;9.05;;;7.68;;
40453;SDS011;26160;51.858;4.398;2023-05-10T18:04:03;7.75;;;6.95;;
40453;SDS011;26160;51.858;4.398;2023-05-10T18:06:36;8.20;;;7.18;;
40453;SDS011;26160;51.858;4.398;2023-05-10T18:09:03;9.27;;;6.93;;
40453;SDS011;26160;51.858;4.398;2023-05-10T18:11:33;10.18;;;7.82;;
40453;SDS011;26160;51.858;4.398;2023-05-10T18:13:59;9.23;;;6.78;;
40453;SDS011;26160;51.858;4.398;2023-05-10T18:16:26;10.68;;;7.50;;
40453;SDS011;26160;51.858;4.398;2023-05-10T18:18:52;7.15;;;6.45;;
40453;SDS011;26160;51.858;4.398;2023-05-10T18:21:18;8.43;;;7.63;;
40453;SDS011;26160;51.858;4.398;2023-05-10T18:23:44;9.13;;;7.78;;
40453;SDS011;26160;51.858;4.398;2023-05-10T18:26:10;7.97;;;7.05;;
40453;SDS011;26160;51.858;4.398;2023-05-10T18:28:39;7.80;;;6.47;;
40453;SDS011;26160;51.858;4.398;2023-05-10T18:31:06;7.95;;;6.85;;
40453;SDS011;26160;51.858;4.398;2023-05-10T18:33:32;8.23;;;7.07;;
40453;SDS011;26160;51.858;4.398;2023-05-10T18:36:01;10.30;;;7.00;;
40453;SDS011;26160;51.858;4.398;2023-05-10T18:38:28;7.20;;;5.93;;
40453;SDS011;26160;51.858;4.398;2023-05-10T18:40:54;8.15;;;6.43;;
40453;SDS011;26160;51.858;4.398;2023-05-10T18:43:22;6.97;;;5.95;;